createdAt,value
2022-09-12T00:04:16.021Z,1.25
2022-09-12T00:09:17.499Z,1.38
2022-09-12T00:14:19.059Z,1.40
2022-09-12T00:19:20.571Z,1.52
2022-09-12T00:24:22.233Z,1.60
2022-09-12T00:29:23.742Z,1.35
2022-09-12T00:34:25.259Z,1.23
2022-09-12T00:39:26.750Z,1.40
2022-09-12T00:44:28.320Z,1.33
2022-09-12T00:49:32.724Z,1.00
2022-09-12T00:54:43.964Z,1.10
2022-09-12T00:59:48.714Z,1.13
2022-09-12T01:04:50.209Z,1.25
2022-09-12T01:09:51.728Z,1.17
2022-09-12T01:14:53.207Z,1.20
2022-09-12T01:20:13.455Z,1.08
2022-09-12T01:25:33.925Z,1.23
2022-09-12T01:30:49.755Z,1.10
2022-09-12T01:36:04.540Z,1.05
2022-09-12T01:41:21.257Z,1.10
2022-09-12T01:46:33.184Z,1.20
2022-09-12T01:51:39.736Z,1.48
2022-09-12T01:56:41.595Z,1.17
2022-09-12T02:01:56.034Z,1.20
2022-09-12T02:07:03.735Z,1.00
2022-09-12T02:12:05.907Z,1.33
2022-09-12T02:17:12.220Z,1.17
2022-09-12T02:22:16.039Z,1.70
2022-09-12T02:27:37.897Z,1.63
2022-09-12T02:32:48.915Z,1.30
2022-09-12T02:38:00.962Z,1.23
2022-09-12T02:43:03.271Z,1.23
2022-09-12T02:48:08.414Z,1.33
2022-09-12T02:53:09.888Z,1.20
2022-09-12T02:58:13.638Z,1.25
2022-09-12T03:03:43.174Z,1.20
2022-09-12T03:08:57.315Z,1.30
2022-09-12T03:14:21.272Z,1.38
2022-09-12T03:19:45.166Z,1.25
2022-09-12T03:25:04.658Z,1.30
2022-09-12T03:30:06.729Z,1.60
2022-09-12T03:40:10.488Z,1.67
2022-09-12T03:45:12.117Z,1.70
2022-09-12T03:50:13.594Z,2.00
2022-09-12T03:55:15.238Z,2.08
2022-09-12T04:00:19.838Z,1.88
2022-09-12T04:05:21.550Z,2.58
2022-09-12T04:10:23.042Z,2.38
2022-09-12T04:15:25.598Z,3.40
2022-09-12T04:20:27.070Z,3.10
2022-09-12T04:25:28.530Z,2.83
2022-09-12T04:30:30.118Z,3.80
2022-09-12T04:35:31.650Z,3.67
2022-09-12T04:40:33.324Z,3.88
2022-09-12T04:45:34.848Z,4.32
2022-09-12T04:50:36.348Z,4.30
2022-09-12T04:55:37.823Z,3.47
2022-09-12T05:00:39.291Z,4.25
2022-09-12T05:05:40.782Z,4.68
2022-09-12T05:10:42.785Z,4.88
2022-09-12T05:15:44.619Z,4.78
2022-09-12T05:20:46.087Z,2.45
2022-09-12T05:25:54.919Z,2.30
2022-09-12T05:31:13.130Z,2.70
2022-09-12T05:36:25.032Z,2.20
2022-09-12T05:41:29.365Z,2.08
2022-09-12T05:46:32.167Z,2.30
2022-09-12T05:51:35.212Z,1.95
2022-09-12T05:56:41.448Z,2.65
2022-09-12T06:01:43.055Z,2.55
2022-09-12T06:06:48.712Z,2.80
2022-09-12T06:11:50.215Z,2.17
2022-09-12T06:16:51.716Z,2.58
2022-09-12T06:21:53.500Z,3.35
2022-09-12T06:26:54.971Z,2.67
2022-09-12T06:31:56.434Z,3.72
2022-09-12T06:36:57.933Z,3.78
2022-09-12T06:41:59.398Z,4.43
2022-09-12T06:47:00.906Z,4.10
2022-09-12T06:52:02.730Z,4.20
2022-09-12T06:57:04.252Z,4.63
2022-09-12T07:02:06.140Z,5.28
2022-09-12T07:07:07.657Z,5.50
2022-09-12T07:12:09.211Z,5.90
2022-09-12T07:17:10.723Z,6.47
2022-09-12T07:22:12.284Z,7.25
2022-09-12T07:27:13.756Z,7.65
2022-09-12T07:32:15.226Z,10.50
2022-09-12T07:37:16.728Z,10.65
2022-09-12T07:42:18.240Z,11.15
2022-09-12T07:47:19.720Z,13.75
2022-09-12T07:52:21.240Z,16.17
2022-09-12T07:57:22.951Z,15.43
2022-09-12T08:02:24.453Z,14.65
2022-09-12T08:07:26.005Z,15.43
2022-09-12T08:12:27.984Z,16.00
2022-09-12T08:17:29.787Z,15.75
2022-09-12T08:22:31.461Z,15.60
2022-09-12T08:27:32.924Z,15.80
2022-09-12T08:32:34.631Z,16.15
2022-09-12T08:37:36.116Z,16.42
2022-09-12T08:42:43.485Z,14.50
2022-09-12T08:47:45.072Z,13.23
2022-09-12T08:52:53.694Z,17.58
2022-09-12T08:57:55.283Z,14.73
2022-09-12T09:03:02.636Z,15.77
2022-09-12T09:08:29.664Z,16.30
2022-09-12T09:14:19.102Z,14.25
2022-09-12T09:19:23.319Z,13.25
2022-09-12T09:24:38.647Z,13.00
2022-09-12T09:29:45.374Z,14.48
2022-09-12T09:34:46.876Z,12.75
2022-09-12T09:39:57.277Z,14.80
2022-09-12T09:45:00.079Z,12.77
2022-09-12T09:50:01.560Z,13.23
2022-09-12T09:55:03.096Z,13.77
2022-09-12T10:00:25.794Z,11.85
2022-09-12T10:05:28.549Z,12.35
2022-09-12T10:10:30.036Z,12.43
2022-09-12T10:15:31.860Z,10.90
2022-09-12T10:20:43.928Z,12.55
2022-09-12T10:25:48.920Z,9.32
2022-09-12T10:30:53.334Z,10.05
2022-09-12T10:35:55.117Z,11.63
2022-09-12T10:46:21.579Z,11.15
2022-09-12T10:51:26.011Z,11.45
2022-09-12T10:56:39.295Z,11.65
2022-09-12T11:01:54.861Z,9.13
2022-09-12T11:07:06.467Z,9.85
2022-09-12T11:12:28.080Z,12.07
2022-09-12T11:17:53.515Z,10.65
2022-09-12T11:23:40.535Z,10.70
2022-09-12T11:29:00.880Z,10.63
2022-09-12T11:34:03.180Z,10.90
2022-09-12T11:39:15.813Z,12.15
2022-09-12T11:44:24.739Z,13.20
2022-09-12T11:49:36.084Z,12.50
2022-09-12T11:54:53.964Z,11.95
2022-09-12T12:00:07.918Z,10.65
2022-09-12T12:05:37.509Z,12.07
2022-09-12T12:10:39.812Z,12.98
2022-09-12T12:15:48.516Z,14.30
2022-09-12T12:20:50.526Z,14.07
2022-09-12T12:25:53.873Z,13.00
2022-09-12T12:30:55.277Z,15.80
2022-09-12T12:35:59.500Z,13.93
2022-09-12T12:41:18.984Z,12.88
2022-09-12T12:46:24.044Z,10.95
2022-09-12T12:51:53.807Z,9.52
2022-09-12T12:57:24.851Z,11.40
2022-09-12T13:02:31.695Z,11.32
2022-09-12T13:07:36.229Z,11.70
2022-09-12T13:12:43.906Z,11.90
2022-09-12T13:17:46.828Z,10.40
2022-09-12T13:22:49.886Z,14.90
2022-09-12T13:28:07.500Z,15.00
2022-09-12T13:33:18.495Z,15.68
2022-09-12T13:38:30.315Z,15.52
2022-09-12T13:43:37.940Z,16.40
2022-09-12T13:48:39.428Z,16.38
2022-09-12T13:53:43.911Z,14.63
2022-09-12T13:58:56.750Z,14.93
2022-09-12T14:04:16.395Z,14.10
2022-09-12T14:09:34.564Z,16.35
2022-09-12T14:14:37.375Z,14.13
2022-09-12T14:19:39.853Z,14.20
2022-09-12T14:24:41.330Z,12.63
2022-09-12T14:29:43.993Z,12.45
2022-09-12T14:35:21.927Z,12.55
2022-09-12T14:40:23.795Z,10.80
2022-09-12T14:45:34.534Z,11.30
2022-09-12T14:50:36.019Z,11.05
2022-09-12T14:55:44.578Z,10.77
2022-09-12T15:01:12.368Z,10.52
2022-09-12T15:06:28.436Z,9.73
2022-09-12T15:11:29.943Z,10.80
2022-09-12T15:16:31.407Z,9.95
2022-09-12T15:21:32.897Z,8.98
2022-09-12T15:26:34.386Z,8.57
2022-09-12T15:31:35.929Z,8.57
2022-09-12T15:36:37.456Z,7.07
2022-09-12T15:41:39.103Z,6.57
2022-09-12T15:46:40.888Z,5.18
2022-09-12T16:01:45.463Z,4.93
2022-09-12T16:06:47.041Z,6.00
2022-09-12T16:11:48.570Z,5.18
2022-09-12T16:16:59.484Z,5.70
2022-09-12T16:22:00.959Z,4.53
2022-09-12T16:27:02.437Z,4.22
2022-09-12T16:32:04.111Z,4.50
2022-09-12T16:37:05.735Z,4.10
2022-09-12T16:42:07.236Z,4.75
2022-09-12T16:47:08.725Z,4.85
2022-09-12T16:52:10.864Z,5.72
2022-09-12T16:57:12.331Z,6.00
2022-09-12T17:02:14.085Z,4.72
2022-09-12T17:07:15.583Z,5.97
2022-09-12T17:12:17.058Z,5.25
2022-09-12T17:17:18.538Z,5.45
2022-09-12T17:22:20.032Z,6.97
2022-09-12T17:27:21.593Z,5.70
2022-09-12T17:32:23.157Z,6.55
2022-09-12T17:37:24.658Z,6.88
2022-09-12T17:42:26.138Z,6.10
2022-09-12T17:47:27.638Z,7.05
2022-09-12T17:52:29.931Z,7.80
2022-09-12T17:57:31.391Z,8.40
2022-09-12T18:02:33.486Z,7.90
2022-09-12T18:07:38.921Z,7.85
2022-09-12T18:12:43.012Z,9.23
2022-09-12T18:17:44.490Z,9.50
2022-09-12T18:22:49.159Z,9.02
2022-09-12T18:27:50.628Z,9.98
2022-09-12T18:32:52.149Z,10.52
2022-09-12T18:37:53.808Z,9.52
2022-09-12T18:42:55.295Z,10.00
2022-09-12T18:47:56.772Z,9.52
2022-09-12T18:52:59.863Z,9.77
2022-09-12T18:58:01.581Z,10.13
2022-09-12T19:03:03.070Z,8.43
2022-09-12T19:08:04.832Z,10.45
2022-09-12T19:13:06.477Z,9.68
2022-09-12T19:18:09.485Z,9.57
2022-09-12T19:23:10.999Z,9.48
2022-09-12T19:28:12.480Z,9.63
2022-09-12T19:33:13.959Z,9.20
2022-09-12T19:38:15.719Z,10.23
2022-09-12T19:43:17.201Z,10.60
2022-09-12T19:48:19.516Z,10.13
2022-09-12T19:53:21.192Z,9.90
2022-09-12T19:58:22.660Z,9.48
2022-09-12T20:03:24.179Z,9.40
2022-09-12T20:08:25.675Z,9.95
2022-09-12T20:13:27.675Z,10.38
2022-09-12T20:18:29.188Z,10.77
2022-09-12T20:23:30.873Z,10.15
2022-09-12T20:28:32.510Z,8.65
2022-09-12T20:33:34.082Z,10.38
2022-09-12T20:38:35.936Z,9.38
2022-09-12T20:48:40.093Z,9.13
2022-09-12T20:53:41.568Z,9.88
2022-09-12T20:58:44.424Z,9.02
2022-09-12T21:03:46.398Z,8.85
2022-09-12T21:08:48.077Z,9.48
2022-09-12T21:13:50.259Z,9.20
2022-09-12T21:18:56.125Z,9.52
2022-09-12T21:24:02.296Z,9.80
2022-09-12T21:29:03.786Z,10.48
2022-09-12T21:34:05.417Z,10.38
2022-09-12T21:39:06.924Z,11.07
2022-09-12T21:44:08.592Z,7.68
2022-09-12T21:49:10.067Z,7.18
2022-09-12T21:54:11.549Z,5.57
2022-09-12T21:59:13.033Z,5.13
2022-09-12T22:04:14.548Z,4.75
2022-09-12T22:09:16.913Z,4.82
2022-09-12T22:14:18.537Z,3.80
2022-09-12T22:19:20.132Z,4.05
2022-09-12T22:24:27.467Z,3.33
2022-09-12T22:29:28.954Z,4.03
2022-09-12T22:34:30.496Z,3.53
2022-09-12T22:39:32.155Z,4.03
2022-09-12T22:44:34.114Z,4.13
2022-09-12T22:49:35.617Z,4.18
2022-09-12T22:54:37.672Z,4.13
2022-09-12T23:04:40.617Z,4.05
2022-09-12T23:09:42.105Z,3.80
2022-09-12T23:14:43.603Z,3.97
2022-09-12T23:19:45.364Z,3.63
2022-09-12T23:24:47.178Z,4.30
2022-09-12T23:29:52.792Z,4.03
2022-09-12T23:34:54.263Z,3.35
2022-09-12T23:39:55.801Z,3.70
2022-09-12T23:44:57.395Z,3.47
2022-09-12T23:49:58.911Z,3.72
2022-09-12T23:55:00.378Z,2.80
